Time;durP1;ratioP1;P1;durP2;ratioP2;P2;SDS_P1;SDS_P2;PMS_P1;PMS_P2;Temp;Humidity;BMP_temperature;BMP_pressure;BME280_temperature;BME280_humidity;BME280_pressure;Samples;Min_cycle;Max_cycle;Signal;HPM_P1;HPM_P2
2024/02/04 00:00:42;;;;;;;2.15;1.05;;;;;;;;;;4996326;28;20049;-76
2024/02/04 00:03:07;;;;;;;1.52;0.80;;;;;;;;;;5025369;28;20056;-76
2024/02/04 00:05:33;;;;;;;1.70;0.93;;;;;;;;;;5030991;28;20064;-77
2024/02/04 00:07:58;;;;;;;1.95;0.90;;;;;;;;;;5031742;28;20052;-77
2024/02/04 00:10:23;;;;;;;1.50;0.85;;;;;;;;;;5033500;28;20071;-77
2024/02/04 00:12:49;;;;;;;1.63;0.93;;;;;;;;;;5029441;28;20042;-77
2024/02/04 00:15:14;;;;;;;1.92;0.90;;;;;;;;;;5030526;28;20041;-77
2024/02/04 00:17:39;;;;;;;1.20;0.60;;;;;;;;;;5030578;28;20029;-77
2024/02/04 00:20:05;;;;;;;1.92;1.20;;;;;;;;;;5012817;28;20075;-77
2024/02/04 00:22:31;;;;;;;1.55;0.90;;;;;;;;;;5027267;28;20525;-77
2024/02/04 00:25:01;;;;;;;1.80;0.90;;;;;;;;;;5010488;28;20030;-77
2024/02/04 00:27:26;;;;;;;;;;;;;;;;;;5030586;28;20120;-77
2024/02/04 00:29:51;;;;;;;2.10;0.90;;;;;;;;;;5030432;28;19956;-77
2024/02/04 00:32:17;;;;;;;2.78;1.10;;;;;;;;;;5030656;28;20033;-77
2024/02/04 00:34:42;;;;;;;1.60;0.90;;;;;;;;;;5004587;28;20108;-78
2024/02/04 00:37:07;;;;;;;2.35;1.35;;;;;;;;;;5004896;28;20030;-78
2024/02/04 00:39:33;;;;;;;2.45;1.20;;;;;;;;;;5002863;28;20057;-78
2024/02/04 00:41:58;;;;;;;1.30;0.93;;;;;;;;;;5030776;28;20071;-77
2024/02/04 00:44:23;;;;;;;1.45;0.88;;;;;;;;;;5028964;28;20087;-78
2024/02/04 00:46:49;;;;;;;1.98;1.00;;;;;;;;;;4995576;28;20400;-77
2024/02/04 00:49:14;;;;;;;1.80;1.00;;;;;;;;;;5016193;28;20496;-77
2024/02/04 00:51:39;;;;;;;1.73;0.82;;;;;;;;;;5013098;28;20033;-77
2024/02/04 00:54:05;;;;;;;1.20;0.80;;;;;;;;;;5012190;28;20029;-77
2024/02/04 00:56:30;;;;;;;1.70;1.00;;;;;;;;;;5026970;28;20041;-77
2024/02/04 00:58:55;;;;;;;3.35;1.30;;;;;;;;;;5012207;28;20043;-77
2024/02/04 01:03:56;;;;;;;1.83;1.00;;;;;;;;;;2910485;22;20509;-61
2024/02/04 01:06:21;;;;;;;1.60;0.95;;;;;;;;;;5043479;28;20566;-59
2024/02/04 01:08:46;;;;;;;2.10;1.17;;;;;;;;;;5037365;22;20049;-70
2024/02/04 01:11:12;;;;;;;1.85;1.00;;;;;;;;;;5024877;28;20445;-70
2024/02/04 01:13:37;;;;;;;1.60;1.05;;;;;;;;;;5026464;28;20041;-66
2024/02/04 01:16:02;;;;;;;2.17;1.02;;;;;;;;;;5026045;28;20079;-68
2024/02/04 01:18:28;;;;;;;1.30;0.90;;;;;;;;;;5027759;28;20021;-68
2024/02/04 01:20:53;;;;;;;2.30;1.08;;;;;;;;;;5027670;28;20168;-69
2024/02/04 01:23:19;;;;;;;2.65;1.17;;;;;;;;;;5025380;28;20041;-69
2024/02/04 01:25:44;;;;;;;2.60;1.20;;;;;;;;;;5024425;28;20017;-69
2024/02/04 01:28:10;;;;;;;1.65;0.90;;;;;;;;;;5025849;28;20128;-69
2024/02/04 01:30:37;;;;;;;1.75;1.00;;;;;;;;;;5025010;28;20032;-71
2024/02/04 01:33:02;;;;;;;2.20;1.00;;;;;;;;;;5023930;28;20396;-69
2024/02/04 01:35:27;;;;;;;2.20;0.93;;;;;;;;;;5017634;28;20086;-68
2024/02/04 01:37:53;;;;;;;2.03;1.10;;;;;;;;;;5025575;28;20033;-70
2024/02/04 01:40:18;;;;;;;1.75;1.02;;;;;;;;;;5025046;28;20886;-69
2024/02/04 01:42:43;;;;;;;1.52;0.90;;;;;;;;;;5037497;22;20045;-58
2024/02/04 01:45:09;;;;;;;3.25;0.98;;;;;;;;;;5024728;28;20056;-59
2024/02/04 01:47:34;;;;;;;2.80;1.13;;;;;;;;;;5017481;28;20029;-61
2024/02/04 01:49:59;;;;;;;1.70;0.95;;;;;;;;;;5022387;28;20021;-60
2024/02/04 01:52:25;;;;;;;1.70;0.90;;;;;;;;;;5026034;28;20112;-60
2024/02/04 01:54:50;;;;;;;2.30;1.05;;;;;;;;;;5022958;28;20902;-60
2024/02/04 01:57:15;;;;;;;1.80;1.00;;;;;;;;;;5019109;28;20091;-60
2024/02/04 01:59:41;;;;;;;2.35;1.20;;;;;;;;;;5024271;28;20548;-59
2024/02/04 02:02:06;;;;;;;1.88;0.93;;;;;;;;;;5004906;28;20034;-60
2024/02/04 02:04:31;;;;;;;2.20;1.13;;;;;;;;;;5022490;28;20018;-59
2024/02/04 02:06:59;;;;;;;1.90;1.02;;;;;;;;;;5025792;28;20090;-60
2024/02/04 02:09:25;;;;;;;1.35;0.90;;;;;;;;;;5025891;28;20066;-59
2024/02/04 02:12:23;;;;;;;1.10;0.88;;;;;;;;;;5025890;28;20026;-60
2024/02/04 02:14:50;;;;;;;1.58;1.00;;;;;;;;;;4990745;28;20033;-60
2024/02/04 02:17:18;;;;;;;1.67;1.02;;;;;;;;;;5025152;28;20041;-60
2024/02/04 02:19:46;;;;;;;1.80;1.13;;;;;;;;;;5026156;28;20033;-60
2024/02/04 02:22:11;;;;;;;1.50;0.90;;;;;;;;;;5008509;28;20045;-59
2024/02/04 02:24:37;;;;;;;1.88;0.93;;;;;;;;;;5025442;28;20852;-60
2024/02/04 02:27:05;;;;;;;1.63;0.90;;;;;;;;;;5024082;28;20099;-60
2024/02/04 02:29:30;;;;;;;2.13;1.35;;;;;;;;;;5001920;28;20074;-60
2024/02/04 02:31:56;;;;;;;1.50;1.10;;;;;;;;;;5007554;28;20134;-60
2024/02/04 02:34:21;;;;;;;2.10;1.15;;;;;;;;;;5025218;28;20033;-60
2024/02/04 02:36:50;;;;;;;2.63;1.00;;;;;;;;;;5000714;28;20040;-60
2024/02/04 02:39:21;;;;;;;1.80;1.00;;;;;;;;;;5010983;28;20046;-60
2024/02/04 02:41:48;;;;;;;2.05;1.10;;;;;;;;;;4997768;28;20594;-60
2024/02/04 02:44:13;;;;;;;2.25;1.00;;;;;;;;;;5016167;28;20196;-60
2024/02/04 02:46:39;;;;;;;1.58;1.10;;;;;;;;;;5022837;28;21061;-60
2024/02/04 02:49:04;;;;;;;1.70;1.00;;;;;;;;;;5026021;28;20042;-59
2024/02/04 02:51:29;;;;;;;2.35;0.80;;;;;;;;;;5026046;28;20132;-59
2024/02/04 02:53:55;;;;;;;1.80;0.98;;;;;;;;;;5025535;28;20048;-58
2024/02/04 02:56:20;;;;;;;1.83;1.10;;;;;;;;;;5024967;28;20045;-59
2024/02/04 02:58:45;;;;;;;1.55;1.05;;;;;;;;;;5023130;28;20069;-59
2024/02/04 03:01:10;;;;;;;1.90;1.00;;;;;;;;;;5006549;28;20121;-59
2024/02/04 03:03:36;;;;;;;1.70;0.98;;;;;;;;;;5008972;28;20049;-59
2024/02/04 03:06:01;;;;;;;2.55;1.00;;;;;;;;;;5024311;28;20026;-59
2024/02/04 03:08:26;;;;;;;2.15;1.00;;;;;;;;;;5025704;28;20099;-59
2024/02/04 03:10:52;;;;;;;2.03;1.10;;;;;;;;;;5025864;28;20052;-59
2024/02/04 03:13:18;;;;;;;1.60;0.90;;;;;;;;;;5025598;28;20107;-60
2024/02/04 03:15:43;;;;;;;1.75;0.98;;;;;;;;;;5024620;28;20045;-60
2024/02/04 03:18:09;;;;;;;2.15;0.90;;;;;;;;;;5025125;28;20030;-60
2024/02/04 03:20:34;;;;;;;1.65;0.93;;;;;;;;;;5024873;28;20033;-60
2024/02/04 03:23:00;;;;;;;2.75;1.25;;;;;;;;;;5025871;28;20130;-60
2024/02/04 03:25:26;;;;;;;1.73;0.82;;;;;;;;;;5024416;28;20041;-60
2024/02/04 03:27:52;;;;;;;2.00;1.00;;;;;;;;;;5024873;28;20544;-60
2024/02/04 03:30:18;;;;;;;1.70;1.05;;;;;;;;;;5025688;28;20042;-60
2024/02/04 03:32:43;;;;;;;1.38;0.80;;;;;;;;;;5024592;28;20043;-59
2024/02/04 03:35:08;;;;;;;1.60;1.00;;;;;;;;;;5025162;28;20581;-60
2024/02/04 03:37:34;;;;;;;1.30;0.90;;;;;;;;;;5023984;28;20033;-60
2024/02/04 03:39:59;;;;;;;2.33;1.00;;;;;;;;;;5025646;28;20038;-60
2024/02/04 03:42:24;;;;;;;2.08;1.20;;;;;;;;;;5024830;28;20551;-60
2024/02/04 03:44:49;;;;;;;1.95;1.00;;;;;;;;;;5026218;28;20033;-60
2024/02/04 03:47:15;;;;;;;2.22;1.00;;;;;;;;;;5017139;28;20048;-60
2024/02/04 03:49:40;;;;;;;1.63;0.95;;;;;;;;;;5027027;28;20045;-60
2024/02/04 03:52:06;;;;;;;1.75;1.08;;;;;;;;;;5009130;28;20491;-60
2024/02/04 03:54:31;;;;;;;2.28;1.20;;;;;;;;;;5019367;28;20045;-60
2024/02/04 03:56:56;;;;;;;1.85;1.00;;;;;;;;;;5006602;28;20099;-61
2024/02/04 03:59:22;;;;;;;1.88;0.88;;;;;;;;;;5019077;28;20041;-60
2024/02/04 04:01:50;;;;;;;1.75;0.90;;;;;;;;;;5027504;28;20120;-60
2024/02/04 04:04:15;;;;;;;2.13;1.10;;;;;;;;;;4999799;28;20061;-60
2024/02/04 04:06:42;;;;;;;1.80;1.20;;;;;;;;;;5019756;28;20152;-60
2024/02/04 04:09:07;;;;;;;1.50;0.88;;;;;;;;;;5018503;28;20153;-60
2024/02/04 04:11:32;;;;;;;1.42;0.82;;;;;;;;;;5026714;28;20556;-60
2024/02/04 04:13:58;;;;;;;1.52;1.00;;;;;;;;;;5027051;28;20041;-59
2024/02/04 04:16:23;;;;;;;2.03;1.20;;;;;;;;;;5025703;28;20515;-59
2024/02/04 04:18:49;;;;;;;1.60;0.90;;;;;;;;;;5025837;28;20124;-60
2024/02/04 04:21:14;;;;;;;1.70;0.95;;;;;;;;;;5026247;28;20050;-60
2024/02/04 04:23:39;;;;;;;1.58;0.80;;;;;;;;;;5021952;28;20049;-60
2024/02/04 04:26:05;;;;;;;1.75;0.90;;;;;;;;;;5022964;28;20419;-60
2024/02/04 04:28:30;;;;;;;1.42;0.95;;;;;;;;;;5026081;28;20038;-61
2024/02/04 04:30:56;;;;;;;1.23;0.70;;;;;;;;;;5002677;28;20581;-61
2024/02/04 04:33:21;;;;;;;1.33;0.90;;;;;;;;;;5015791;28;20029;-60
2024/02/04 04:35:47;;;;;;;1.40;0.80;;;;;;;;;;5017288;28;20033;-60
2024/02/04 04:38:12;;;;;;;1.60;0.95;;;;;;;;;;5019006;28;20084;-60
2024/02/04 04:40:38;;;;;;;1.95;1.00;;;;;;;;;;5013981;28;20187;-61
2024/02/04 04:43:03;;;;;;;1.70;0.90;;;;;;;;;;5027061;28;20072;-60
2024/02/04 04:45:28;;;;;;;1.17;0.90;;;;;;;;;;5027015;28;20049;-61
2024/02/04 04:47:54;;;;;;;1.42;0.80;;;;;;;;;;5015345;28;20053;-60
2024/02/04 04:50:19;;;;;;;1.52;0.88;;;;;;;;;;5011395;28;20452;-60
2024/02/04 04:52:44;;;;;;;1.60;1.10;;;;;;;;;;5026719;28;20037;-60
2024/02/04 04:55:10;;;;;;;1.63;0.88;;;;;;;;;;5019517;28;20130;-58
2024/02/04 04:57:35;;;;;;;1.40;1.00;;;;;;;;;;5024471;28;20034;-59
2024/02/04 05:00:06;;;;;;;2.10;0.82;;;;;;;;;;5013658;28;20061;-59
2024/02/04 05:02:31;;;;;;;1.30;0.85;;;;;;;;;;5024053;28;20700;-59
2024/02/04 05:04:56;;;;;;;1.35;0.80;;;;;;;;;;5026990;28;20044;-59
2024/02/04 05:07:22;;;;;;;1.50;0.85;;;;;;;;;;5023878;28;20044;-59
2024/02/04 05:09:47;;;;;;;1.48;0.77;;;;;;;;;;5026688;28;20056;-60
2024/02/04 05:12:12;;;;;;;1.63;0.90;;;;;;;;;;5019777;28;20687;-60
2024/02/04 05:14:38;;;;;;;1.38;0.60;;;;;;;;;;5012660;28;20495;-60
2024/02/04 05:17:04;;;;;;;1.60;0.82;;;;;;;;;;5020068;28;20037;-60
2024/02/04 05:19:29;;;;;;;1.30;0.85;;;;;;;;;;5015736;28;20068;-60
2024/02/04 05:21:54;;;;;;;1.60;0.63;;;;;;;;;;5018388;28;20065;-60
2024/02/04 05:24:20;;;;;;;1.33;0.80;;;;;;;;;;5022568;28;20049;-60
2024/02/04 05:26:45;;;;;;;1.52;0.60;;;;;;;;;;5015655;28;20053;-60
2024/02/04 05:29:10;;;;;;;1.40;0.70;;;;;;;;;;5025455;28;20102;-60
2024/02/04 05:31:42;;;;;;;1.42;0.80;;;;;;;;;;5025507;28;20076;-60
2024/02/04 05:34:08;;;;;;;1.35;0.77;;;;;;;;;;5016851;28;20104;-60
2024/02/04 05:36:33;;;;;;;1.48;0.70;;;;;;;;;;5033683;28;20482;-60
2024/02/04 05:39:08;;;;;;;1.50;0.90;;;;;;;;;;5022539;28;21859;-61
2024/02/04 05:41:33;;;;;;;1.25;0.80;;;;;;;;;;5031533;28;20065;-61
2024/02/04 05:43:58;;;;;;;1.70;0.90;;;;;;;;;;5034390;28;20045;-61
2024/02/04 05:46:24;;;;;;;1.20;0.70;;;;;;;;;;5029782;28;20167;-60
2024/02/04 05:48:49;;;;;;;1.20;0.60;;;;;;;;;;5034268;28;20052;-61
2024/02/04 05:51:14;;;;;;;0.80;0.60;;;;;;;;;;5038941;28;20038;-62
2024/02/04 05:53:40;;;;;;;1.02;0.70;;;;;;;;;;5033608;28;20034;-61
2024/02/04 05:56:05;;;;;;;1.35;0.75;;;;;;;;;;5032166;28;20052;-61
2024/02/04 05:58:30;;;;;;;1.30;0.80;;;;;;;;;;5026316;28;20059;-61
2024/02/04 06:00:56;;;;;;;1.20;0.70;;;;;;;;;;5025778;28;20037;-61
2024/02/04 06:03:22;;;;;;;1.65;0.80;;;;;;;;;;5025481;28;20113;-62
2024/02/04 06:05:47;;;;;;;2.83;0.90;;;;;;;;;;5023595;28;20894;-59
2024/02/04 06:08:13;;;;;;;1.63;0.80;;;;;;;;;;5003129;28;20030;-59
2024/02/04 06:10:38;;;;;;;1.23;0.70;;;;;;;;;;5004454;28;20037;-59
2024/02/04 06:13:03;;;;;;;1.70;0.90;;;;;;;;;;5005047;28;20046;-60
2024/02/04 06:15:29;;;;;;;1.38;0.80;;;;;;;;;;5004582;28;20468;-62
2024/02/04 06:17:54;;;;;;;0.90;0.60;;;;;;;;;;5016074;28;20590;-61
2024/02/04 06:20:25;;;;;;;0.85;0.50;;;;;;;;;;5010072;28;20033;-61
2024/02/04 06:22:52;;;;;;;0.93;0.68;;;;;;;;;;4988487;28;20081;-58
2024/02/04 06:25:17;;;;;;;1.73;0.70;;;;;;;;;;5005001;28;20613;-59
2024/02/04 06:27:42;;;;;;;1.27;0.73;;;;;;;;;;5022677;28;20030;-60
2024/02/04 06:30:08;;;;;;;1.00;0.60;;;;;;;;;;5024464;28;20526;-59
2024/02/04 06:32:33;;;;;;;1.48;0.82;;;;;;;;;;5024780;28;20033;-60
2024/02/04 06:34:58;;;;;;;1.20;0.77;;;;;;;;;;5024212;28;20085;-61
2024/02/04 06:37:27;;;;;;;1.10;0.68;;;;;;;;;;5024610;28;20042;-61
2024/02/04 06:39:52;;;;;;;1.13;0.80;;;;;;;;;;5022357;28;20040;-61
2024/02/04 06:42:17;;;;;;;1.90;0.73;;;;;;;;;;5023425;28;20052;-61
2024/02/04 06:44:45;;;;;;;1.27;0.50;;;;;;;;;;5020613;28;20029;-60
2024/02/04 06:47:13;;;;;;;1.40;0.80;;;;;;;;;;5024552;28;20466;-60
2024/02/04 06:49:39;;;;;;;3.50;0.90;;;;;;;;;;5019566;28;20025;-61
2024/02/04 06:52:04;;;;;;;1.67;0.70;;;;;;;;;;5022652;28;20072;-60
2024/02/04 06:54:29;;;;;;;1.20;0.70;;;;;;;;;;5025418;28;20033;-59
2024/02/04 06:56:55;;;;;;;1.55;0.85;;;;;;;;;;5024656;28;20732;-60
2024/02/04 06:59:20;;;;;;;2.35;0.60;;;;;;;;;;5024363;28;20025;-58
2024/02/04 07:01:45;;;;;;;1.67;0.70;;;;;;;;;;5025348;28;20060;-60
2024/02/04 07:04:11;;;;;;;2.47;0.70;;;;;;;;;;5025439;28;20108;-59
2024/02/04 07:06:36;;;;;;;2.55;0.60;;;;;;;;;;5024715;28;20379;-60
2024/02/04 07:09:02;;;;;;;2.83;0.70;;;;;;;;;;5024553;28;20041;-60
2024/02/04 07:11:27;;;;;;;1.95;0.70;;;;;;;;;;5024877;28;20051;-59
2024/02/04 07:13:58;;;;;;;1.95;0.65;;;;;;;;;;5024342;28;20028;-60
2024/02/04 07:16:24;;;;;;;2.30;0.90;;;;;;;;;;5025005;28;20112;-60
2024/02/04 07:18:49;;;;;;;1.40;0.80;;;;;;;;;;5023853;28;20403;-61
2024/02/04 07:21:14;;;;;;;1.48;0.65;;;;;;;;;;5028982;28;20040;-59
2024/02/04 07:23:40;;;;;;;2.72;0.82;;;;;;;;;;5029046;28;20069;-60
2024/02/04 07:26:05;;;;;;;1.77;0.68;;;;;;;;;;5029492;28;20101;-59
2024/02/04 07:28:30;;;;;;;1.90;0.70;;;;;;;;;;5027847;28;20099;-59
2024/02/04 07:30:55;;;;;;;1.73;0.93;;;;;;;;;;5028564;28;20025;-60
2024/02/04 07:33:21;;;;;;;1.45;0.80;;;;;;;;;;5029275;28;20048;-60
2024/02/04 07:35:46;;;;;;;1.08;0.68;;;;;;;;;;5028891;28;20052;-61
2024/02/04 07:38:11;;;;;;;0.90;0.50;;;;;;;;;;5024643;28;20087;-59
2024/02/04 07:40:37;;;;;;;4.97;1.10;;;;;;;;;;5027930;28;20064;-59
2024/02/04 07:43:02;;;;;;;1.30;0.70;;;;;;;;;;5027962;28;20096;-59
2024/02/04 07:45:27;;;;;;;1.88;0.75;;;;;;;;;;5026830;28;20041;-61
2024/02/04 07:47:53;;;;;;;1.00;0.57;;;;;;;;;;5027201;28;20025;-60
2024/02/04 07:50:18;;;;;;;0.95;0.60;;;;;;;;;;5027963;28;20130;-61
2024/02/04 07:52:43;;;;;;;1.55;0.60;;;;;;;;;;5028290;28;20030;-60
2024/02/04 07:55:09;;;;;;;1.52;0.90;;;;;;;;;;5026961;28;20048;-60
2024/02/04 07:57:34;;;;;;;1.20;0.80;;;;;;;;;;5027929;28;20051;-60
2024/02/04 07:59:59;;;;;;;1.23;0.70;;;;;;;;;;5027384;28;20285;-61
2024/02/04 08:02:25;;;;;;;1.23;0.65;;;;;;;;;;5027990;28;20049;-60
2024/02/04 08:04:50;;;;;;;1.48;0.73;;;;;;;;;;5027706;28;20041;-60
2024/02/04 08:07:17;;;;;;;1.30;0.70;;;;;;;;;;5028175;28;20044;-60
2024/02/04 08:09:42;;;;;;;1.65;0.70;;;;;;;;;;5026312;28;20037;-60
2024/02/04 08:12:08;;;;;;;1.60;0.70;;;;;;;;;;5027963;28;20053;-61
2024/02/04 08:14:33;;;;;;;1.42;0.82;;;;;;;;;;5027786;28;20040;-61
2024/02/04 08:16:58;;;;;;;2.15;0.77;;;;;;;;;;5027709;28;20153;-60
2024/02/04 08:19:23;;;;;;;1.40;0.60;;;;;;;;;;5026878;28;20065;-59
2024/02/04 08:21:49;;;;;;;1.42;0.80;;;;;;;;;;5027836;28;20045;-60
2024/02/04 08:24:14;;;;;;;1.00;0.63;;;;;;;;;;5027967;28;20376;-61
2024/02/04 08:26:39;;;;;;;1.88;0.68;;;;;;;;;;5025857;28;20045;-60
2024/02/04 08:29:05;;;;;;;1.27;0.70;;;;;;;;;;5028227;28;20068;-61
2024/02/04 08:31:31;;;;;;;1.35;0.75;;;;;;;;;;5026334;28;20084;-60
2024/02/04 08:33:58;;;;;;;1.73;0.80;;;;;;;;;;5027956;28;20077;-60
2024/02/04 08:36:23;;;;;;;1.50;0.70;;;;;;;;;;5027758;28;20083;-60
2024/02/04 08:38:48;;;;;;;0.93;0.70;;;;;;;;;;5027715;28;20491;-61
2024/02/04 08:41:13;;;;;;;1.88;0.68;;;;;;;;;;5027090;28;20048;-61
2024/02/04 08:43:39;;;;;;;3.70;0.75;;;;;;;;;;5026965;28;20041;-59
2024/02/04 08:46:05;;;;;;;1.40;0.60;;;;;;;;;;5027615;28;20116;-60
2024/02/04 08:48:30;;;;;;;2.03;0.60;;;;;;;;;;5025629;28;20127;-59
2024/02/04 08:50:55;;;;;;;1.20;0.63;;;;;;;;;;5026089;28;20065;-59
2024/02/04 08:53:21;;;;;;;1.05;0.60;;;;;;;;;;5027140;28;20041;-59
2024/02/04 08:55:46;;;;;;;2.70;0.70;;;;;;;;;;5026926;28;20091;-59
2024/02/04 08:58:11;;;;;;;1.10;0.60;;;;;;;;;;5026037;28;20427;-62
2024/02/04 09:00:36;;;;;;;1.27;0.70;;;;;;;;;;5025494;28;20496;-60
2024/02/04 09:03:02;;;;;;;1.63;0.70;;;;;;;;;;5023564;28;20138;-59
2024/02/04 09:05:27;;;;;;;1.40;0.80;;;;;;;;;;5026260;28;20033;-60
2024/02/04 09:07:55;;;;;;;1.02;0.63;;;;;;;;;;5026567;28;20108;-59
2024/02/04 09:10:20;;;;;;;1.73;0.60;;;;;;;;;;5026034;28;20803;-60
2024/02/04 09:12:45;;;;;;;1.38;0.80;;;;;;;;;;5026750;28;20115;-60
2024/02/04 09:15:11;;;;;;;1.15;0.47;;;;;;;;;;5026934;28;20034;-60
2024/02/04 09:17:36;;;;;;;9.30;1.23;;;;;;;;;;5026423;28;20034;-61
2024/02/04 09:20:02;;;;;;;1.10;0.70;;;;;;;;;;5024696;28;20045;-60
2024/02/04 09:22:27;;;;;;;2.42;0.73;;;;;;;;;;5024138;28;20415;-60
2024/02/04 09:24:52;;;;;;;1.42;0.70;;;;;;;;;;5008534;28;20045;-61
2024/02/04 09:27:18;;;;;;;2.13;0.85;;;;;;;;;;5025699;28;20034;-61
2024/02/04 09:29:43;;;;;;;2.50;0.70;;;;;;;;;;5008148;28;20093;-59
2024/02/04 09:32:08;;;;;;;2.63;0.80;;;;;;;;;;5024375;28;20057;-60
2024/02/04 09:34:34;;;;;;;1.30;0.70;;;;;;;;;;5024228;28;20033;-60
2024/02/04 09:36:59;;;;;;;1.65;0.70;;;;;;;;;;5026893;28;20041;-60
2024/02/04 09:39:25;;;;;;;3.97;0.80;;;;;;;;;;5027187;28;20033;-59
2024/02/04 09:41:50;;;;;;;2.42;0.77;;;;;;;;;;5026290;28;20189;-59
2024/02/04 09:44:15;;;;;;;2.55;0.93;;;;;;;;;;5025121;28;20029;-60
2024/02/04 09:46:40;;;;;;;0.95;0.60;;;;;;;;;;5023954;28;20136;-59
2024/02/04 09:49:06;;;;;;;2.72;0.60;;;;;;;;;;5023792;28;20048;-60
2024/02/04 09:51:31;;;;;;;2.47;0.80;;;;;;;;;;5017675;28;20052;-59
2024/02/04 09:53:58;;;;;;;2.45;0.85;;;;;;;;;;5019030;28;20046;-58
2024/02/04 09:56:23;;;;;;;3.17;0.85;;;;;;;;;;5007777;28;20496;-58
2024/02/04 09:58:52;;;;;;;1.35;0.65;;;;;;;;;;5007468;28;20765;-59
2024/02/04 10:01:18;;;;;;;1.15;0.70;;;;;;;;;;5022730;28;20078;-60
2024/02/04 10:03:43;;;;;;;1.60;0.90;;;;;;;;;;5017600;28;20096;-59
2024/02/04 10:06:09;;;;;;;1.90;0.85;;;;;;;;;;5017506;28;20432;-60
2024/02/04 10:08:35;;;;;;;3.00;0.90;;;;;;;;;;5019831;28;20499;-59
2024/02/04 10:11:01;;;;;;;1.33;0.80;;;;;;;;;;5005347;28;20061;-59
2024/02/04 10:13:26;;;;;;;1.50;0.80;;;;;;;;;;5017447;28;20696;-60
2024/02/04 10:15:52;;;;;;;2.40;0.70;;;;;;;;;;5021272;28;20099;-59
2024/02/04 10:18:17;;;;;;;2.65;0.90;;;;;;;;;;5018985;28;20037;-59
2024/02/04 10:20:42;;;;;;;1.40;0.70;;;;;;;;;;5005578;28;20030;-59
2024/02/04 10:23:08;;;;;;;3.78;1.10;;;;;;;;;;5019396;28;20033;-60
2024/02/04 10:25:33;;;;;;;1.40;0.80;;;;;;;;;;5025751;28;20439;-59
2024/02/04 10:27:59;;;;;;;1.48;0.90;;;;;;;;;;5025447;28;20041;-58
2024/02/04 10:30:24;;;;;;;1.90;0.95;;;;;;;;;;5025926;28;20025;-60
2024/02/04 10:32:53;;;;;;;2.00;1.13;;;;;;;;;;5025343;28;20034;-59
2024/02/04 10:35:20;;;;;;;2.00;0.90;;;;;;;;;;5023857;28;20534;-59
2024/02/04 10:37:45;;;;;;;1.88;0.80;;;;;;;;;;5026558;28;20610;-59
2024/02/04 10:40:11;;;;;;;1.15;0.77;;;;;;;;;;5024856;28;20053;-59
2024/02/04 10:42:36;;;;;;;2.47;0.90;;;;;;;;;;5023384;28;20046;-59
2024/02/04 10:45:02;;;;;;;1.55;0.70;;;;;;;;;;5023584;28;20041;-60
2024/02/04 10:47:32;;;;;;;2.15;0.80;;;;;;;;;;5020498;28;20545;-60
2024/02/04 10:49:58;;;;;;;2.00;0.90;;;;;;;;;;5019951;28;20131;-61
2024/02/04 10:52:23;;;;;;;1.85;0.95;;;;;;;;;;5024450;28;20056;-59
2024/02/04 10:54:49;;;;;;;1.75;0.88;;;;;;;;;;5009887;28;20034;-59
2024/02/04 10:57:14;;;;;;;12.85;1.98;;;;;;;;;;5029257;28;20116;-60
2024/02/04 10:59:39;;;;;;;8.38;1.63;;;;;;;;;;5029596;28;20030;-61
2024/02/04 11:02:05;;;;;;;10.63;1.83;;;;;;;;;;5029281;28;20129;-60
2024/02/04 11:04:30;;;;;;;8.20;1.35;;;;;;;;;;5026997;28;20585;-59
2024/02/04 11:06:55;;;;;;;6.75;1.15;;;;;;;;;;5008317;28;20045;-59
2024/02/04 11:09:21;;;;;;;5.70;1.27;;;;;;;;;;5029470;28;20753;-59
2024/02/04 11:11:46;;;;;;;7.47;1.27;;;;;;;;;;5027021;28;20040;-60
2024/02/04 11:14:12;;;;;;;5.32;1.30;;;;;;;;;;5028030;28;20041;-59
2024/02/04 11:16:56;;;;;;;3.58;1.00;;;;;;;;;;5027372;28;20458;-59
2024/02/04 11:19:36;;;;;;;5.30;1.35;;;;;;;;;;5032257;28;20045;-60
2024/02/04 11:22:20;;;;;;;4.57;0.85;;;;;;;;;;5028865;28;20045;-60
2024/02/04 11:24:55;;;;;;;4.85;1.10;;;;;;;;;;5031642;28;20045;-60
2024/02/04 11:27:20;;;;;;;4.72;1.15;;;;;;;;;;5030730;28;20046;-60
2024/02/04 11:29:45;;;;;;;4.57;1.30;;;;;;;;;;5029515;28;20519;-59
2024/02/04 11:32:12;;;;;;;6.18;1.80;;;;;;;;;;5028470;28;20056;-60
2024/02/04 11:34:37;;;;;;;7.30;3.35;;;;;;;;;;5028441;28;20037;-59
2024/02/04 11:37:13;;;;;;;20.48;12.52;;;;;;;;;;5029437;28;20495;-60
2024/02/04 11:39:38;;;;;;;19.38;12.15;;;;;;;;;;5028184;28;20030;-60
2024/02/04 11:42:13;;;;;;;14.50;10.68;;;;;;;;;;5026424;28;20044;-60
2024/02/04 11:44:39;;;;;;;11.15;6.57;;;;;;;;;;5026840;28;20017;-59
2024/02/04 11:47:04;;;;;;;10.63;5.88;;;;;;;;;;5027586;28;20380;-60
2024/02/04 11:49:29;;;;;;;9.80;6.60;;;;;;;;;;5028515;28;20021;-60
2024/02/04 11:51:55;;;;;;;9.82;5.85;;;;;;;;;;5027677;28;20163;-59
2024/02/04 11:54:20;;;;;;;9.02;5.55;;;;;;;;;;5027290;28;20025;-59
2024/02/04 11:56:46;;;;;;;8.63;5.13;;;;;;;;;;5027567;28;20018;-59
2024/02/04 11:59:11;;;;;;;10.95;5.40;;;;;;;;;;5024564;28;20523;-60
2024/02/04 12:01:37;;;;;;;14.65;4.88;;;;;;;;;;5028896;28;20032;-59
2024/02/04 12:04:11;;;;;;;11.38;4.63;;;;;;;;;;5026733;28;20993;-60
2024/02/04 12:06:37;;;;;;;10.18;4.15;;;;;;;;;;5027611;28;20029;-59
2024/02/04 12:09:04;;;;;;;9.35;4.30;;;;;;;;;;5028751;28;20056;-60
2024/02/04 12:11:29;;;;;;;9.52;3.70;;;;;;;;;;5024834;28;20042;-60
2024/02/04 12:13:54;;;;;;;9.77;3.90;;;;;;;;;;5028325;28;20361;-61
2024/02/04 12:16:19;;;;;;;7.13;3.53;;;;;;;;;;5027677;28;20106;-61
2024/02/04 12:18:49;;;;;;;9.73;3.25;;;;;;;;;;5027653;28;20041;-59
2024/02/04 12:21:14;;;;;;;7.30;3.17;;;;;;;;;;5026624;28;20446;-60
2024/02/04 12:23:40;;;;;;;9.93;3.42;;;;;;;;;;5027526;28;20359;-60
2024/02/04 12:26:05;;;;;;;7.53;2.92;;;;;;;;;;5026007;28;20041;-61
2024/02/04 12:28:30;;;;;;;6.40;2.95;;;;;;;;;;5026773;28;20149;-60
2024/02/04 12:30:58;;;;;;;6.25;2.60;;;;;;;;;;5027967;28;20029;-60
2024/02/04 12:33:23;;;;;;;9.25;2.53;;;;;;;;;;5027390;28;20113;-62
2024/02/04 12:35:50;;;;;;;5.55;2.55;;;;;;;;;;5027914;28;20132;-60
2024/02/04 12:38:15;;;;;;;5.45;2.17;;;;;;;;;;5027932;28;20864;-60
2024/02/04 12:40:41;;;;;;;7.50;2.50;;;;;;;;;;5027161;28;20043;-60
2024/02/04 12:43:06;;;;;;;4.10;2.22;;;;;;;;;;5008310;28;20053;-59
2024/02/04 12:45:31;;;;;;;6.63;2.38;;;;;;;;;;5027830;28;20045;-60
2024/02/04 12:47:57;;;;;;;4.57;2.30;;;;;;;;;;5026091;28;20041;-60
2024/02/04 12:50:22;;;;;;;6.32;2.33;;;;;;;;;;5027145;28;20499;-60
2024/02/04 12:52:48;;;;;;;3.75;1.95;;;;;;;;;;5027008;28;20037;-59
2024/02/04 12:55:23;;;;;;;4.40;2.20;;;;;;;;;;5027365;28;20521;-60
2024/02/04 12:57:49;;;;;;;6.05;2.08;;;;;;;;;;5027817;28;20046;-61
2024/02/04 13:00:17;;;;;;;4.60;1.80;;;;;;;;;;5025323;28;20116;-60
2024/02/04 13:02:43;;;;;;;5.20;1.75;;;;;;;;;;5028412;28;20041;-59
2024/02/04 13:05:08;;;;;;;3.38;1.83;;;;;;;;;;5009106;28;20038;-60
2024/02/04 13:07:34;;;;;;;4.40;1.73;;;;;;;;;;5018859;28;20036;-60
2024/02/04 13:10:02;;;;;;;5.45;2.08;;;;;;;;;;5034975;28;20479;-60
2024/02/04 13:12:27;;;;;;;3.10;1.50;;;;;;;;;;5035164;28;20093;-60
2024/02/04 13:14:52;;;;;;;4.13;1.92;;;;;;;;;;5034721;28;20049;-60
2024/02/04 13:17:18;;;;;;;5.07;1.80;;;;;;;;;;5029921;28;20531;-59
2024/02/04 13:19:44;;;;;;;4.30;1.65;;;;;;;;;;5010833;28;20136;-60
2024/02/04 13:22:10;;;;;;;4.22;1.52;;;;;;;;;;5029859;28;20045;-60
2024/02/04 13:24:35;;;;;;;5.93;1.52;;;;;;;;;;5027734;28;20061;-61
2024/02/04 13:27:01;;;;;;;4.13;1.65;;;;;;;;;;5028322;28;20068;-59
2024/02/04 13:29:27;;;;;;;4.10;1.25;;;;;;;;;;5026432;28;20063;-60
2024/02/04 13:31:52;;;;;;;4.82;1.50;;;;;;;;;;5026308;28;20586;-60
2024/02/04 13:34:17;;;;;;;3.05;1.33;;;;;;;;;;5026035;28;20048;-60
2024/02/04 13:36:43;;;;;;;6.00;1.70;;;;;;;;;;5026449;28;20121;-59
2024/02/04 13:39:08;;;;;;;3.58;1.20;;;;;;;;;;5005122;28;20073;-60
2024/02/04 13:41:34;;;;;;;4.53;1.75;;;;;;;;;;5023862;28;20414;-60
2024/02/04 13:43:59;;;;;;;5.15;1.58;;;;;;;;;;5025197;28;20321;-60
2024/02/04 13:46:24;;;;;;;2.75;1.30;;;;;;;;;;5021302;28;20033;-60
2024/02/04 13:48:50;;;;;;;3.85;1.48;;;;;;;;;;5024597;28;20427;-60
2024/02/04 13:51:15;;;;;;;3.90;1.58;;;;;;;;;;5023804;28;20046;-60
2024/02/04 13:53:40;;;;;;;3.88;1.52;;;;;;;;;;5024465;28;20038;-61
2024/02/04 13:56:06;;;;;;;4.03;1.70;;;;;;;;;;5025106;28;20048;-60
2024/02/04 13:58:31;;;;;;;3.65;1.42;;;;;;;;;;5025037;28;20034;-60
2024/02/04 14:00:57;;;;;;;4.07;1.30;;;;;;;;;;5024919;28;20111;-60
2024/02/04 14:03:22;;;;;;;2.60;1.10;;;;;;;;;;5024574;28;20147;-62
2024/02/04 14:05:47;;;;;;;3.45;1.30;;;;;;;;;;5025269;28;20040;-60
2024/02/04 14:08:12;;;;;;;3.45;1.60;;;;;;;;;;5026178;28;20041;-62
2024/02/04 14:10:38;;;;;;;3.67;1.30;;;;;;;;;;5025707;28;20048;-62
2024/02/04 14:13:04;;;;;;;3.47;1.40;;;;;;;;;;5007317;28;20072;-60
2024/02/04 14:15:30;;;;;;;4.53;1.50;;;;;;;;;;5026629;28;20041;-60
2024/02/04 14:17:55;;;;;;;2.50;1.40;;;;;;;;;;5025782;28;20053;-61
2024/02/04 14:20:22;;;;;;;4.65;1.35;;;;;;;;;;5025827;28;20045;-61
2024/02/04 14:22:47;;;;;;;3.28;1.40;;;;;;;;;;5018944;28;20144;-61
2024/02/04 14:25:12;;;;;;;2.67;1.50;;;;;;;;;;5025166;28;20144;-60
2024/02/04 14:27:38;;;;;;;2.72;1.35;;;;;;;;;;5025429;28;20037;-61
2024/02/04 14:30:04;;;;;;;3.58;1.27;;;;;;;;;;5024791;28;20030;-61
2024/02/04 14:32:30;;;;;;;2.97;1.40;;;;;;;;;;5024408;28;20094;-61
2024/02/04 14:34:55;;;;;;;4.35;1.40;;;;;;;;;;5025479;28;20072;-61
2024/02/04 14:37:20;;;;;;;2.85;1.30;;;;;;;;;;5016100;28;20397;-61